Time;durP1;ratioP1;P1;durP2;ratioP2;P2;SDS_P1;SDS_P2;PMS_P1;PMS_P2;Temp;Humidity;BMP_temperature;BMP_pressure;BME280_temperature;BME280_humidity;BME280_pressure;Samples;Min_cycle;Max_cycle;Signal;HPM_P1;HPM_P2
2023/07/05 00:00:35;;;;;;;8.00;2.20;;;21.90;84.80;;;;;;5093186;28;20130;-61
2023/07/05 00:03:00;;;;;;;4.68;2.42;;;22.00;85.80;;;;;;5075632;28;20044;-60
2023/07/05 00:05:26;;;;;;;5.00;2.15;;;22.00;84.90;;;;;;5093135;28;20389;-62
2023/07/05 00:07:52;;;;;;;4.28;2.33;;;22.00;82.30;;;;;;5093977;28;20400;-61
2023/07/05 00:10:19;;;;;;;4.85;2.17;;;;;;;;;;5092791;28;20051;-61
2023/07/05 00:12:44;;;;;;;4.20;2.20;;;21.90;85.30;;;;;;5092755;28;20036;-64
2023/07/05 00:15:10;;;;;;;6.10;2.25;;;21.80;85.00;;;;;;5092383;28;20066;-62
2023/07/05 00:17:36;;;;;;;6.53;2.17;;;21.90;85.10;;;;;;5056481;28;20048;-60
2023/07/05 00:20:04;;;;;;;8.00;2.35;;;21.90;85.10;;;;;;5073183;28;20051;-60
2023/07/05 00:22:30;;;;;;;7.00;2.42;;;22.00;85.20;;;;;;5093347;28;20115;-61
2023/07/05 00:24:55;;;;;;;4.32;1.98;;;21.90;85.10;;;;;;5092489;28;20533;-62
2023/07/05 00:27:24;;;;;;;5.78;2.47;;;21.90;85.10;;;;;;5074043;28;20126;-60
2023/07/05 00:29:50;;;;;;;7.15;2.28;;;22.00;85.10;;;;;;5091902;28;20048;-63
2023/07/05 00:32:16;;;;;;;5.32;2.50;;;21.90;85.50;;;;;;5091888;28;20048;-64
2023/07/05 00:34:42;;;;;;;5.60;2.15;;;21.90;82.70;;;;;;5073985;28;20186;-63
2023/07/05 00:37:08;;;;;;;4.90;2.20;;;;;;;;;;5087483;28;20110;-63
2023/07/05 00:39:33;;;;;;;7.13;2.88;;;21.90;85.50;;;;;;5072827;28;20045;-67
2023/07/05 00:41:59;;;;;;;7.65;2.53;;;21.90;85.60;;;;;;5080461;28;20492;-61
2023/07/05 00:44:26;;;;;;;6.50;2.55;;;21.70;85.90;;;;;;5091854;28;20040;-61
2023/07/05 00:46:56;;;;;;;4.93;2.25;;;21.90;85.80;;;;;;5090654;28;20072;-61
2023/07/05 00:49:22;;;;;;;5.50;2.40;;;21.80;85.70;;;;;;5075227;28;20052;-61
2023/07/05 00:51:55;;;;;;;6.20;2.40;;;21.80;83.10;;;;;;5092967;28;20052;-65
2023/07/05 00:54:26;;;;;;;5.88;2.55;;;21.90;85.70;;;;;;5074071;28;20051;-61
2023/07/05 00:57:02;;;;;;;5.65;2.50;;;21.90;86.10;;;;;;5091279;28;20040;-60
2023/07/05 00:59:30;;;;;;;4.65;2.35;;;21.80;86.00;;;;;;5093234;28;20052;-62
2023/07/05 01:01:56;;;;;;;6.63;2.83;;;21.90;86.10;;;;;;5095987;28;20485;-60
2023/07/05 01:04:22;;;;;;;4.93;2.40;;;22.20;87.00;;;;;;5095566;28;20044;-60
2023/07/05 01:06:48;;;;;;;7.05;2.67;;;21.90;86.30;;;;;;5093519;28;20101;-61
2023/07/05 01:09:14;;;;;;;5.65;2.42;;;;;;;;;;5076600;28;20052;-64
2023/07/05 01:11:55;;;;;;;7.03;2.65;;;21.90;86.30;;;;;;5081806;28;20085;-60
2023/07/05 01:14:38;;;;;;;5.65;2.40;;;21.80;86.20;;;;;;5094325;28;20040;-60
2023/07/05 01:17:06;;;;;;;;;;;21.50;82.50;;;;;;5097131;28;20393;-62
2023/07/05 01:20:05;;;;;;;7.00;2.50;;;21.70;86.30;;;;;;5096108;28;19923;-63
2023/07/05 01:22:52;;;;;;;7.80;2.72;;;21.70;86.30;;;;;;5078436;28;20485;-62
2023/07/05 01:25:48;;;;;;;5.88;2.70;;;21.60;86.50;;;;;;5087289;28;20043;-62
2023/07/05 01:28:32;;;;;;;6.20;2.72;;;21.80;86.40;;;;;;5080864;28;20056;-62
2023/07/05 01:31:31;;;;;;;5.60;2.80;;;21.80;86.60;;;;;;5095978;28;20097;-61
2023/07/05 01:34:05;;;;;;;7.15;2.88;;;21.90;86.60;;;;;;5095658;28;20056;-61
2023/07/05 01:36:31;;;;;;;7.30;2.90;;;21.80;86.50;;;;;;5095342;28;20094;-62
2023/07/05 01:38:57;;;;;;;8.07;3.10;;;21.70;86.40;;;;;;5078277;28;20071;-64
2023/07/05 01:41:24;;;;;;;7.40;3.10;;;21.70;86.40;;;;;;5087695;28;20446;-65
2023/07/05 01:43:50;;;;;;;7.05;2.80;;;;;;;;;;5076062;28;20075;-65
2023/07/05 01:46:25;;;;;;;7.43;2.90;;;21.70;86.30;;;;;;5094365;28;20055;-65
2023/07/05 01:49:04;;;;;;;7.00;2.88;;;21.70;86.60;;;;;;5094842;28;20054;-66
2023/07/05 01:51:32;;;;;;;7.20;3.17;;;21.60;82.20;;;;;;5096053;28;20631;-65
2023/07/05 01:54:00;;;;;;;6.22;2.88;;;21.70;86.90;;;;;;5094924;28;20131;-65
2023/07/05 01:56:31;;;;;;;6.05;3.30;;;21.70;86.90;;;;;;5077287;28;20587;-66
2023/07/05 01:58:58;;;;;;;8.52;3.20;;;21.60;86.90;;;;;;5076700;28;20079;-66
2023/07/05 02:01:24;;;;;;;6.60;2.75;;;21.70;87.00;;;;;;5094792;28;20048;-65
2023/07/05 02:03:49;;;;;;;8.10;3.03;;;21.50;86.90;;;;;;5077678;28;20117;-65
2023/07/05 02:06:16;;;;;;;6.75;2.85;;;21.70;86.90;;;;;;5089991;28;20115;-65
2023/07/05 02:08:43;;;;;;;6.35;3.17;;;21.70;86.90;;;;;;5074301;28;20052;-65
2023/07/05 02:11:08;;;;;;;7.15;3.38;;;21.80;87.20;;;;;;5074033;28;20087;-66
2023/07/05 02:13:34;;;;;;;6.50;2.60;;;21.70;87.10;;;;;;5075437;28;20064;-66
2023/07/05 02:16:00;;;;;;;8.05;3.05;;;21.70;87.00;;;;;;5086471;28;20412;-60
2023/07/05 02:18:29;;;;;;;7.47;3.10;;;21.70;87.10;;;;;;5095443;28;20385;-60
2023/07/05 02:20:55;;;;;;;7.07;2.90;;;21.60;84.40;;;;;;5095126;28;20055;-63
2023/07/05 02:23:22;;;;;;;5.35;2.95;;;21.70;87.00;;;;;;5094532;28;20194;-66
2023/07/05 02:25:50;;;;;;;7.13;3.35;;;21.70;87.40;;;;;;5094087;28;20083;-66
2023/07/05 02:28:15;;;;;;;6.47;3.20;;;21.60;87.10;;;;;;5093569;28;20039;-61
2023/07/05 02:30:41;;;;;;;6.85;3.05;;;21.80;87.70;;;;;;5095170;28;20102;-65
2023/07/05 02:33:07;;;;;;;7.65;3.50;;;21.60;87.40;;;;;;5080499;28;20147;-66
2023/07/05 02:35:39;;;;;;;7.47;3.30;;;21.70;87.10;;;;;;5075987;28;20080;-66
2023/07/05 02:38:05;;;;;;;6.50;2.87;;;21.60;87.00;;;;;;5093927;28;20131;-65
2023/07/05 02:40:31;;;;;;;6.63;3.13;;;21.80;87.30;;;;;;5094862;28;20131;-65
2023/07/05 02:42:59;;;;;;;6.97;2.90;;;21.80;87.20;;;;;;5094331;28;20054;-62
2023/07/05 02:45:26;;;;;;;8.25;3.70;;;21.60;87.10;;;;;;5092633;28;20493;-60
2023/07/05 02:47:52;;;;;;;6.32;3.20;;;21.70;87.20;;;;;;5093676;28;20440;-60
2023/07/05 02:50:17;;;;;;;8.80;3.78;;;21.80;88.20;;;;;;5079083;28;20056;-61
2023/07/05 02:52:44;;;;;;;7.75;3.38;;;21.60;87.00;;;;;;5077851;28;20083;-63
2023/07/05 02:55:10;;;;;;;10.52;3.95;;;21.70;87.20;;;;;;5093397;28;20048;-61
2023/07/05 02:57:35;;;;;;;7.18;3.95;;;21.70;87.30;;;;;;5093070;28;20127;-60
2023/07/05 03:00:02;;;;;;;6.55;3.63;;;21.70;87.30;;;;;;5090475;28;20047;-63
2023/07/05 03:02:29;;;;;;;7.03;3.67;;;;;;;;;;5093901;28;20554;-64
2023/07/05 03:04:54;;;;;;;8.05;3.60;;;21.60;87.30;;;;;;5071665;28;20041;-61
2023/07/05 03:07:20;;;;;;;9.20;4.25;;;21.60;87.50;;;;;;5064568;28;20105;-60
2023/07/05 03:09:48;;;;;;;7.93;4.10;;;21.50;87.50;;;;;;5093697;28;20044;-60
2023/07/05 03:12:17;;;;;;;9.30;4.07;;;21.40;84.60;;;;;;5093284;28;20043;-63
2023/07/05 03:14:43;;;;;;;7.47;4.25;;;21.60;87.60;;;;;;5078787;28;20045;-60
2023/07/05 03:17:09;;;;;;;7.72;4.20;;;21.70;87.70;;;;;;5076426;28;20496;-61
2023/07/05 03:19:35;;;;;;;7.25;4.28;;;21.80;88.90;;;;;;5093913;28;20036;-60
2023/07/05 03:22:00;;;;;;;9.52;4.43;;;21.50;87.70;;;;;;5092805;28;20031;-60
2023/07/05 03:24:26;;;;;;;7.05;4.10;;;21.50;87.80;;;;;;5083961;28;20127;-60
2023/07/05 03:26:52;;;;;;;8.75;4.50;;;21.50;87.80;;;;;;5093319;28;20047;-60
2023/07/05 03:29:18;;;;;;;8.93;4.60;;;21.60;88.00;;;;;;5091003;28;20040;-61
2023/07/05 03:31:44;;;;;;;8.93;4.25;;;21.40;87.90;;;;;;5084865;28;20490;-60
2023/07/05 03:34:09;;;;;;;7.32;4.43;;;21.40;88.00;;;;;;5092260;28;20438;-62
2023/07/05 03:36:35;;;;;;;7.97;5.10;;;21.40;87.50;;;;;;5093911;28;20059;-62
2023/07/05 03:39:01;;;;;;;9.32;5.03;;;21.40;88.10;;;;;;5092684;28;20040;-60
2023/07/05 03:41:27;;;;;;;8.30;4.60;;;21.40;88.20;;;;;;5092586;28;20422;-61
2023/07/05 03:44:02;;;;;;;8.13;4.75;;;21.30;88.20;;;;;;5093246;28;20490;-61
2023/07/05 03:46:27;;;;;;;8.57;4.50;;;21.30;88.20;;;;;;5092753;28;20043;-60
2023/07/05 03:48:53;;;;;;;8.43;4.88;;;21.40;88.70;;;;;;5091808;28;20036;-61
2023/07/05 03:51:21;;;;;;;8.75;5.05;;;21.50;88.50;;;;;;5092816;28;20036;-60
2023/07/05 03:53:51;;;;;;;9.27;5.13;;;21.30;88.60;;;;;;5092508;28;20432;-60
2023/07/05 03:56:16;;;;;;;8.90;5.18;;;21.30;88.50;;;;;;5093810;28;20050;-61
2023/07/05 03:58:42;;;;;;;10.45;5.22;;;21.30;88.60;;;;;;5089734;28;20447;-61
2023/07/05 04:01:15;;;;;;;8.27;5.03;;;21.40;88.70;;;;;;5091630;28;20123;-64
2023/07/05 04:03:41;;;;;;;8.90;5.40;;;21.20;88.70;;;;;;5092559;28;20113;-62
2023/07/05 04:06:07;;;;;;;9.60;4.97;;;21.30;88.70;;;;;;5093220;28;20094;-64
2023/07/05 04:08:33;;;;;;;9.73;4.97;;;21.40;88.70;;;;;;5092594;28;20076;-61
2023/07/05 04:10:59;;;;;;;9.38;5.10;;;;;;;;;;5091312;28;20123;-61
2023/07/05 04:13:25;;;;;;;8.18;4.97;;;;;;;;;;5073820;28;20523;-63
2023/07/05 04:16:21;;;;;;;8.13;4.85;;;21.30;88.80;;;;;;5074486;28;20032;-60
2023/07/05 04:18:49;;;;;;;9.10;4.90;;;21.30;88.90;;;;;;5068694;28;20056;-66
2023/07/05 04:21:15;;;;;;;9.10;4.90;;;21.30;88.90;;;;;;5092170;28;20040;-65
2023/07/05 04:23:41;;;;;;;9.48;5.15;;;21.20;88.90;;;;;;5092201;28;20044;-65
2023/07/05 04:26:08;;;;;;;7.95;4.82;;;21.30;89.00;;;;;;5093285;28;20124;-65
2023/07/05 04:28:34;;;;;;;8.02;4.80;;;21.30;89.10;;;;;;5092050;28;20043;-65
2023/07/05 04:31:00;;;;;;;8.18;4.75;;;21.30;86.90;;;;;;5092115;28;20052;-61
2023/07/05 04:33:26;;;;;;;8.00;4.90;;;21.40;89.10;;;;;;5091871;28;20104;-60
2023/07/05 04:35:57;;;;;;;8.88;4.45;;;21.30;89.00;;;;;;5092445;28;20572;-62
2023/07/05 04:38:23;;;;;;;8.70;4.93;;;;;;;;;;5079104;28;20171;-65
2023/07/05 04:40:49;;;;;;;6.55;4.35;;;21.50;88.90;;;;;;5092555;28;20520;-60
2023/07/05 04:43:15;;;;;;;7.60;4.47;;;21.40;88.80;;;;;;5092957;28;20042;-61
2023/07/05 04:45:41;;;;;;;6.82;4.13;;;21.50;88.80;;;;;;5092316;28;20040;-60
2023/07/05 04:48:06;;;;;;;9.05;4.68;;;21.50;88.80;;;;;;5088170;28;20040;-61
2023/07/05 04:50:32;;;;;;;7.78;5.03;;;21.70;88.90;;;;;;5092621;28;20058;-61
2023/07/05 04:52:58;;;;;;;7.55;4.55;;;21.50;88.90;;;;;;5092073;28;20126;-62
2023/07/05 04:55:24;;;;;;;8.70;5.13;;;21.60;88.90;;;;;;5092155;28;20130;-63
2023/07/05 04:57:50;;;;;;;8.07;4.43;;;21.60;89.00;;;;;;5092575;28;20044;-64
2023/07/05 05:00:16;;;;;;;8.38;4.90;;;21.50;88.90;;;;;;5076358;28;20052;-66
2023/07/05 05:02:42;;;;;;;7.13;4.30;;;21.60;89.10;;;;;;5092780;28;20036;-61
2023/07/05 05:05:08;;;;;;;7.57;4.47;;;21.60;89.10;;;;;;5089295;28;20044;-62
2023/07/05 05:07:34;;;;;;;7.15;4.32;;;21.70;89.20;;;;;;5092720;28;20058;-61
2023/07/05 05:10:02;;;;;;;7.43;4.53;;;21.50;89.00;;;;;;5073452;28;20043;-60
2023/07/05 05:12:28;;;;;;;7.03;4.43;;;21.60;89.10;;;;;;5092460;28;20190;-67
2023/07/05 05:14:54;;;;;;;8.15;4.45;;;21.60;89.30;;;;;;5092703;28;20147;-65
2023/07/05 05:17:20;;;;;;;7.28;4.55;;;21.60;89.00;;;;;;5090783;28;20062;-61
2023/07/05 05:19:45;;;;;;;6.53;4.07;;;21.70;89.10;;;;;;5073794;28;20060;-62
2023/07/05 05:22:11;;;;;;;7.43;4.40;;;21.70;89.10;;;;;;5084478;28;20045;-63
2023/07/05 05:24:37;;;;;;;6.68;3.97;;;21.70;87.50;;;;;;5072421;28;20083;-60
2023/07/05 05:27:04;;;;;;;9.65;4.25;;;21.70;89.10;;;;;;5080111;28;20500;-61
2023/07/05 05:29:30;;;;;;;7.15;4.45;;;21.90;89.60;;;;;;5091256;28;20048;-66
2023/07/05 05:31:56;;;;;;;7.28;4.43;;;21.80;89.10;;;;;;5092060;28;20051;-64
2023/07/05 05:34:24;;;;;;;7.20;4.13;;;21.70;89.10;;;;;;5092550;28;20362;-62
2023/07/05 05:36:50;;;;;;;7.18;4.30;;;21.80;88.60;;;;;;5091825;28;20056;-61
2023/07/05 05:39:16;;;;;;;7.32;4.25;;;21.80;89.10;;;;;;5088078;28;20182;-67
2023/07/05 05:41:42;;;;;;;6.20;3.90;;;21.80;89.00;;;;;;5092101;28;20193;-63
2023/07/05 05:44:07;;;;;;;8.27;3.83;;;21.80;89.10;;;;;;5070601;28;20051;-64
2023/07/05 05:46:33;;;;;;;6.22;3.40;;;21.70;89.10;;;;;;5075106;28;20047;-67
2023/07/05 05:48:59;;;;;;;6.75;4.18;;;21.80;89.10;;;;;;5092377;28;20044;-61
2023/07/05 05:51:25;;;;;;;6.32;3.85;;;21.60;88.90;;;;;;5095093;28;20044;-63
2023/07/05 05:53:51;;;;;;;6.50;3.53;;;21.70;89.00;;;;;;5096048;28;20048;-61
2023/07/05 05:56:17;;;;;;;6.40;3.30;;;22.00;88.90;;;;;;5088590;28;20068;-64
2023/07/05 05:58:43;;;;;;;4.90;2.92;;;22.10;88.80;;;;;;5082771;28;20424;-62
2023/07/05 06:01:12;;;;;;;6.32;3.25;;;22.10;88.60;;;;;;5092783;28;20126;-66
2023/07/05 06:03:38;;;;;;;6.75;3.30;;;22.10;88.10;;;;;;5092732;28;20101;-61
2023/07/05 06:06:04;;;;;;;5.75;3.17;;;22.30;87.90;;;;;;5080721;28;20048;-67
2023/07/05 06:08:29;;;;;;;5.60;3.35;;;22.50;87.70;;;;;;5094374;28;20055;-65
2023/07/05 06:10:56;;;;;;;5.57;3.10;;;22.60;87.50;;;;;;5093423;28;20482;-64
2023/07/05 06:13:23;;;;;;;6.70;3.40;;;22.80;87.40;;;;;;5090760;28;20119;-66
2023/07/05 06:15:58;;;;;;;5.60;3.25;;;22.70;86.90;;;;;;5094950;28;20097;-66
2023/07/05 06:18:26;;;;;;;6.13;3.35;;;22.90;86.70;;;;;;5086959;28;20044;-67
2023/07/05 06:20:51;;;;;;;5.65;3.20;;;23.00;86.40;;;;;;5093863;28;20452;-62
2023/07/05 06:23:17;;;;;;;6.38;3.47;;;23.00;83.80;;;;;;5095800;28;20078;-61
2023/07/05 06:25:50;;;;;;;6.22;3.40;;;22.90;83.50;;;;;;5077698;28;20050;-61
2023/07/05 06:28:16;;;;;;;5.47;3.17;;;23.40;83.80;;;;;;5095805;28;20397;-61
2023/07/05 06:30:43;;;;;;;4.72;3.13;;;23.30;83.50;;;;;;5085415;28;20044;-62
2023/07/05 06:33:09;;;;;;;6.35;3.30;;;23.20;85.60;;;;;;5094808;28;20127;-60
2023/07/05 06:35:35;;;;;;;6.18;3.20;;;23.20;82.80;;;;;;5094640;28;20131;-64
2023/07/05 06:38:01;;;;;;;6.32;3.30;;;23.30;82.90;;;;;;5075003;28;20037;-64
2023/07/05 06:40:26;;;;;;;6.78;3.45;;;23.00;85.30;;;;;;5074969;28;20556;-61
2023/07/05 06:42:52;;;;;;;5.93;3.38;;;22.90;82.70;;;;;;5091242;28;20460;-62
2023/07/05 06:45:18;;;;;;;5.22;3.10;;;23.00;85.30;;;;;;5094437;28;20464;-61
2023/07/05 06:47:45;;;;;;;6.43;3.30;;;23.20;82.80;;;;;;5084039;28;20041;-68
2023/07/05 06:50:12;;;;;;;5.68;3.45;;;23.00;85.40;;;;;;5086168;28;20048;-63
2023/07/05 06:52:38;;;;;;;6.80;3.25;;;23.10;83.00;;;;;;5075032;28;20418;-65
2023/07/05 06:55:05;;;;;;;6.68;3.50;;;23.20;82.80;;;;;;5093835;28;20043;-70
2023/07/05 06:57:31;;;;;;;6.90;3.42;;;23.00;84.20;;;;;;5094098;28;20051;-69
2023/07/05 06:59:57;;;;;;;5.95;3.47;;;23.00;84.00;;;;;;5094470;28;20048;-66
2023/07/05 07:02:23;;;;;;;8.35;3.75;;;23.10;81.50;;;;;;5093376;28;20397;-61
2023/07/05 07:04:48;;;;;;;6.60;3.17;;;23.20;83.70;;;;;;5092830;28;20044;-61
2023/07/05 07:07:14;;;;;;;15.32;4.03;;;23.10;80.90;;;;;;5093231;28;20040;-62
2023/07/05 07:09:40;;;;;;;12.63;4.20;;;22.80;83.70;;;;;;5080601;28;20097;-61
2023/07/05 07:12:07;;;;;;;6.35;3.67;;;22.80;83.60;;;;;;5082950;28;20040;-61
2023/07/05 07:14:33;;;;;;;9.68;4.00;;;22.80;83.50;;;;;;5094530;28;20047;-62
2023/07/05 07:16:59;;;;;;;41.63;5.50;;;22.60;83.50;;;;;;5071569;28;20401;-68
2023/07/05 07:19:25;;;;;;;13.05;3.90;;;22.80;81.10;;;;;;5093952;28;20044;-69
2023/07/05 07:21:51;;;;;;;11.30;3.85;;;22.30;83.90;;;;;;5082066;28;20043;-68
2023/07/05 07:24:17;;;;;;;7.35;3.38;;;22.50;84.10;;;;;;5088041;28;20072;-64
2023/07/05 07:26:43;;;;;;;8.80;3.50;;;22.60;83.90;;;;;;5093781;28;20520;-65
2023/07/05 07:29:10;;;;;;;13.52;3.20;;;;;;;;;;5093354;28;20452;-61
2023/07/05 07:31:36;;;;;;;8.55;3.70;;;22.80;79.60;;;;;;5094526;28;20052;-62
2023/07/05 07:34:05;;;;;;;6.20;3.25;;;22.60;81.10;;;;;;5076253;28;20066;-61
2023/07/05 07:36:31;;;;;;;10.02;3.63;;;22.70;81.00;;;;;;5090540;28;20489;-61
2023/07/05 07:38:57;;;;;;;9.30;3.75;;;23.00;81.30;;;;;;5067437;28;20458;-61
2023/07/05 07:41:24;;;;;;;6.93;3.63;;;23.00;81.00;;;;;;5077476;28;20040;-60
2023/07/05 07:43:51;;;;;;;8.18;3.30;;;23.10;80.90;;;;;;5094065;28;20044;-62
2023/07/05 07:46:19;;;;;;;7.00;3.58;;;23.00;80.70;;;;;;5094282;28;20401;-61
2023/07/05 07:48:46;;;;;;;8.82;3.28;;;23.00;82.90;;;;;;5083669;28;20456;-65
2023/07/05 07:51:12;;;;;;;6.68;3.30;;;22.90;82.90;;;;;;5094671;28;20401;-63
2023/07/05 07:53:38;;;;;;;7.50;3.63;;;22.80;80.30;;;;;;5101663;28;20043;-61
2023/07/05 07:56:12;;;;;;;5.70;3.30;;;22.70;80.40;;;;;;5105691;28;20043;-61
2023/07/05 07:58:38;;;;;;;8.38;3.25;;;22.90;80.90;;;;;;5081466;28;20420;-61
2023/07/05 08:01:12;;;;;;;8.90;3.40;;;22.60;83.00;;;;;;5092434;28;20051;-63
2023/07/05 08:03:39;;;;;;;6.43;3.70;;;22.80;81.00;;;;;;5091189;28;20048;-63
2023/07/05 08:06:06;;;;;;;14.77;3.80;;;22.50;83.80;;;;;;5093694;28;20043;-60
2023/07/05 08:08:33;;;;;;;23.00;4.78;;;22.30;84.00;;;;;;5085327;28;20044;-61
2023/07/05 08:10:59;;;;;;;9.07;3.38;;;22.30;83.40;;;;;;5085044;28;20040;-60
2023/07/05 08:13:25;;;;;;;9.07;3.78;;;22.20;84.30;;;;;;5083771;28;20206;-67
2023/07/05 08:15:51;;;;;;;7.88;3.20;;;22.30;85.30;;;;;;5093342;28;20040;-66
2023/07/05 08:18:17;;;;;;;7.10;3.28;;;22.20;84.40;;;;;;5091779;28;20054;-64
2023/07/05 08:20:43;;;;;;;8.57;3.13;;;22.00;84.50;;;;;;5092305;28;20394;-60
2023/07/05 08:23:09;;;;;;;9.77;3.33;;;21.90;81.80;;;;;;5092224;28;20040;-63
2023/07/05 08:25:37;;;;;;;6.00;2.80;;;22.10;84.90;;;;;;5093255;28;20050;-62
2023/07/05 08:28:03;;;;;;;7.18;3.17;;;22.00;85.00;;;;;;5075054;28;20089;-60
2023/07/05 08:30:29;;;;;;;6.35;2.78;;;22.00;82.40;;;;;;5084266;28;20050;-62
2023/07/05 08:32:54;;;;;;;7.88;2.90;;;21.90;85.20;;;;;;5084102;28;20489;-66
2023/07/05 08:35:20;;;;;;;5.47;2.90;;;21.70;85.60;;;;;;5087060;28;20138;-61
2023/07/05 08:37:48;;;;;;;6.55;2.70;;;21.90;85.30;;;;;;5093074;28;20047;-61
2023/07/05 08:40:16;;;;;;;5.07;2.35;;;21.80;85.30;;;;;;5091152;28;20048;-65
2023/07/05 08:42:52;;;;;;;5.75;2.40;;;21.80;85.30;;;;;;5090770;28;20052;-62
2023/07/05 08:45:25;;;;;;;5.55;2.50;;;21.90;85.50;;;;;;5075280;28;20102;-61
2023/07/05 08:47:52;;;;;;;3.28;1.70;;;21.90;85.30;;;;;;5073042;28;20045;-66
2023/07/05 08:50:45;;;;;;;6.15;2.00;;;21.80;85.40;;;;;;5087885;28;20044;-66
2023/07/05 08:53:15;;;;;;;3.10;1.60;;;21.70;85.10;;;;;;5070653;28;20067;-61
2023/07/05 08:55:54;;;;;;;3.88;1.50;;;21.70;85.20;;;;;;5091301;28;20036;-60
2023/07/05 08:58:25;;;;;;;4.18;1.67;;;21.70;85.20;;;;;;5071735;28;20036;-63
2023/07/05 09:00:57;;;;;;;3.03;1.20;;;21.40;85.10;;;;;;5090757;28;20127;-62
2023/07/05 09:03:23;;;;;;;2.22;1.30;;;21.60;85.40;;;;;;5083194;28;20136;-61
2023/07/05 09:06:13;;;;;;;2.75;1.17;;;21.50;85.40;;;;;;5063482;28;20032;-63
2023/07/05 09:08:48;;;;;;;2.70;1.30;;;21.30;85.00;;;;;;5090430;28;20048;-60
2023/07/05 09:11:25;;;;;;;2.47;1.00;;;21.30;85.50;;;;;;5092388;28;20543;-65
2023/07/05 09:13:51;;;;;;;2.55;1.10;;;21.10;85.50;;;;;;5091359;28;20040;-61
2023/07/05 09:16:49;;;;;;;3.72;1.40;;;21.00;85.50;;;;;;5072537;28;20055;-63
2023/07/05 09:19:27;;;;;;;3.47;1.20;;;20.90;81.30;;;;;;5053334;28;20497;-66
2023/07/05 09:21:58;;;;;;;2.90;1.02;;;20.90;85.90;;;;;;5076022;28;20049;-62
2023/07/05 09:24:26;;;;;;;5.90;1.20;;;20.90;86.00;;;;;;5058531;28;20124;-67
2023/07/05 09:27:01;;;;;;;2.20;1.30;;;20.70;85.90;;;;;;5077842;28;20532;-67
2023/07/05 09:29:31;;;;;;;3.53;1.05;;;20.50;81.60;;;;;;5076990;28;20084;-63
2023/07/05 09:32:01;;;;;;;2.80;1.17;;;20.60;86.10;;;;;;5095949;28;20051;-62
2023/07/05 09:34:37;;;;;;;2.75;1.20;;;20.40;81.90;;;;;;5076995;28;20054;-62
2023/07/05 09:37:25;;;;;;;2.38;1.10;;;20.60;86.60;;;;;;5081280;28;20428;-66
2023/07/05 09:40:16;;;;;;;4.65;1.23;;;20.30;83.10;;;;;;5080203;28;20493;-62
2023/07/05 09:42:56;;;;;;;3.45;1.33;;;20.20;87.00;;;;;;5077551;28;20048;-64
2023/07/05 09:45:22;;;;;;;3.05;1.20;;;20.30;87.30;;;;;;5094813;28;20048;-63
2023/07/05 09:47:50;;;;;;;2.90;1.20;;;20.10;87.40;;;;;;5094791;28;20048;-61
2023/07/05 09:50:20;;;;;;;3.92;1.60;;;20.00;87.60;;;;;;5094541;28;20405;-66
2023/07/05 09:52:57;;;;;;;3.50;1.30;;;19.90;87.30;;;;;;5093650;28;20119;-66
2023/07/05 09:55:25;;;;;;;2.97;1.17;;;;;;;;;;5091091;28;20040;-64
2023/07/05 09:57:52;;;;;;;3.28;0.90;;;19.90;88.10;;;;;;5093337;28;20040;-61
2023/07/05 10:00:34;;;;;;;3.75;1.27;;;20.10;88.50;;;;;;5090100;28;20050;-65
2023/07/05 10:03:14;;;;;;;2.80;1.23;;;19.90;88.40;;;;;;5095084;28;20048;-65
2023/07/05 10:05:50;;;;;;;2.78;1.15;;;19.90;88.50;;;;;;5092408;28;20044;-60
2023/07/05 10:08:16;;;;;;;3.67;1.33;;;;;;;;;;5061684;28;20044;-63
2023/07/05 10:10:42;;;;;;;3.88;1.10;;;19.70;88.70;;;;;;5091578;28;20071;-61
2023/07/05 10:13:16;;;;;;;6.13;1.17;;;19.80;84.70;;;;;;5084450;28;20040;-66
2023/07/05 10:15:43;;;;;;;2.47;1.20;;;19.80;86.30;;;;;;5093091;28;20071;-66
2023/07/05 10:18:26;;;;;;;4.25;1.45;;;19.70;86.30;;;;;;5095195;28;20052;-65
2023/07/05 10:20:52;;;;;;;5.07;1.50;;;20.00;89.10;;;;;;5093126;28;20075;-65
2023/07/05 10:23:20;;;;;;;4.25;1.35;;;19.90;86.70;;;;;;5095116;28;20211;-64
2023/07/05 10:25:45;;;;;;;4.85;1.63;;;19.90;89.40;;;;;;5077205;28;20055;-65
2023/07/05 10:28:14;;;;;;;5.15;1.35;;;20.00;86.80;;;;;;5054437;28;20043;-65
2023/07/05 10:30:54;;;;;;;4.70;1.63;;;20.10;89.60;;;;;;5090614;28;20109;-66
2023/07/05 10:33:28;;;;;;;4.88;1.40;;;20.50;89.80;;;;;;5078191;28;20091;-61
2023/07/05 10:36:02;;;;;;;4.97;1.42;;;20.10;89.70;;;;;;5095370;28;20178;-61
2023/07/05 10:38:32;;;;;;;4.53;1.58;;;20.40;89.80;;;;;;5095245;28;20047;-61
2023/07/05 10:41:00;;;;;;;6.03;1.48;;;20.40;86.80;;;;;;5093971;28;20152;-63
2023/07/05 10:43:28;;;;;;;4.60;1.40;;;20.50;89.50;;;;;;5092237;28;20046;-66
2023/07/05 10:45:54;;;;;;;4.30;1.50;;;20.60;89.40;;;;;;5068274;28;20116;-66
2023/07/05 10:48:35;;;;;;;6.38;1.70;;;20.50;89.40;;;;;;5074509;28;20131;-62
2023/07/05 10:51:00;;;;;;;3.88;1.63;;;20.80;89.50;;;;;;5069894;28;20047;-62
2023/07/05 10:53:27;;;;;;;5.70;1.58;;;20.60;89.40;;;;;;5092280;28;20413;-61
2023/07/05 10:56:09;;;;;;;6.03;2.67;;;20.80;86.70;;;;;;5076996;28;20051;-60
2023/07/05 10:58:46;;;;;;;6.32;2.55;;;20.80;86.90;;;;;;5076768;28;20115;-62
2023/07/05 11:01:40;;;;;;;7.82;3.83;;;20.90;89.60;;;;;;5073419;28;20090;-61
2023/07/05 11:04:07;;;;;;;9.23;4.03;;;20.90;89.50;;;;;;5069332;28;20044;-60
2023/07/05 11:06:36;;;;;;;11.00;5.03;;;21.00;86.50;;;;;;5093524;28;20094;-64
2023/07/05 11:09:03;;;;;;;10.02;4.18;;;21.20;89.30;;;;;;5095185;28;20043;-62
2023/07/05 11:11:31;;;;;;;8.98;3.20;;;21.00;86.50;;;;;;5094575;28;20051;-60
2023/07/05 11:14:00;;;;;;;7.28;3.30;;;21.20;88.80;;;;;;5092592;28;20136;-60
2023/07/05 11:16:26;;;;;;;5.60;2.95;;;21.30;88.80;;;;;;5094726;28;20056;-61
2023/07/05 11:19:04;;;;;;;7.20;2.65;;;21.20;88.90;;;;;;5090092;28;20040;-64
2023/07/05 11:21:46;;;;;;;5.72;2.45;;;21.30;84.60;;;;;;5073258;28;20501;-63
2023/07/05 11:24:39;;;;;;;7.38;2.38;;;21.30;88.40;;;;;;5091792;28;20069;-61
2023/07/05 11:27:23;;;;;;;5.13;2.17;;;21.40;88.40;;;;;;5089472;28;20044;-61
2023/07/05 11:29:51;;;;;;;5.97;1.98;;;21.40;88.20;;;;;;5094588;28;20048;-59
2023/07/05 11:32:19;;;;;;;4.85;1.90;;;21.30;85.90;;;;;;5094198;28;20052;-61
2023/07/05 11:34:47;;;;;;;5.18;1.77;;;21.60;88.40;;;;;;5092774;28;20048;-62
2023/07/05 11:37:12;;;;;;;4.22;1.80;;;21.40;88.00;;;;;;5079184;28;20047;-59
2023/07/05 11:39:42;;;;;;;3.13;1.40;;;21.60;88.40;;;;;;5085745;28;20048;-60
2023/07/05 11:42:14;;;;;;;5.70;1.80;;;21.60;88.50;;;;;;5094600;28;20089;-62
2023/07/05 11:44:46;;;;;;;4.35;1.55;;;21.70;88.50;;;;;;5087377;28;20178;-60
2023/07/05 11:47:21;;;;;;;4.90;1.40;;;21.60;88.00;;;;;;5073663;28;20045;-62
2023/07/05 11:49:56;;;;;;;5.43;1.42;;;21.70;87.60;;;;;;5073678;28;20125;-62
2023/07/05 11:52:23;;;;;;;4.40;1.58;;;21.70;85.30;;;;;;5041126;28;20094;-63
2023/07/05 11:54:57;;;;;;;4.25;1.50;;;21.70;87.50;;;;;;5087658;28;20126;-61
2023/07/05 11:57:23;;;;;;;4.38;1.55;;;21.70;87.30;;;;;;5091173;28;20486;-60
2023/07/05 12:00:18;;;;;;;3.13;1.40;;;21.70;87.10;;;;;;5091216;28;20123;-60
2023/07/05 12:03:25;;;;;;;6.72;2.20;;;21.80;87.10;;;;;;5093311;28;20794;-67
2023/07/05 12:06:10;;;;;;;4.82;1.73;;;21.90;87.20;;;;;;5015623;28;20444;-62
2023/07/05 12:08:41;;;;;;;7.13;2.20;;;21.90;87.30;;;;;;5034882;28;20107;-67
2023/07/05 12:11:07;;;;;;;5.82;1.90;;;21.90;87.30;;;;;;5028643;28;20458;-66
2023/07/05 12:13:34;;;;;;;6.70;1.92;;;22.00;84.60;;;;;;5030560;28;20399;-62
2023/07/05 12:16:01;;;;;;;6.18;1.77;;;21.90;87.40;;;;;;5030489;28;20049;-67
2023/07/05 12:18:28;;;;;;;5.75;1.77;;;21.80;87.50;;;;;;5030511;28;20058;-65
2023/07/05 12:20:54;;;;;;;7.53;1.90;;;21.80;87.40;;;;;;5029190;28;20501;-67
2023/07/05 12:23:21;;;;;;;6.85;1.92;;;21.90;87.60;;;;;;5030432;28;20057;-67
2023/07/05 12:25:49;;;;;;;5.13;1.75;;;21.80;86.80;;;;;;5030098;28;20068;-67
2023/07/05 12:28:26;;;;;;;5.55;1.50;;;21.90;85.10;;;;;;5030372;28;20041;-68
2023/07/05 12:31:06;;;;;;;5.03;1.50;;;21.90;86.60;;;;;;5028734;28;20061;-60
2023/07/05 12:33:36;;;;;;;5.18;1.83;;;21.70;87.30;;;;;;5020994;28;20447;-62
2023/07/05 12:36:07;;;;;;;4.47;1.60;;;21.80;83.80;;;;;;5052637;28;20058;-65
2023/07/05 12:38:33;;;;;;;5.53;2.00;;;21.80;87.40;;;;;;5113422;28;20043;-67
2023/07/05 12:40:59;;;;;;;5.35;1.70;;;21.70;87.50;;;;;;5111457;28;20530;-64
2023/07/05 12:43:28;;;;;;;4.97;1.70;;;21.80;87.40;;;;;;5112953;28;20111;-68
2023/07/05 12:46:07;;;;;;;5.50;1.98;;;21.70;87.60;;;;;;5092961;28;20044;-63
2023/07/05 12:48:33;;;;;;;7.07;1.50;;;21.80;87.60;;;;;;5111034;28;20052;-60
2023/07/05 12:51:10;;;;;;;4.57;1.70;;;21.60;87.50;;;;;;5111375;28;20031;-62
2023/07/05 12:53:37;;;;;;;5.40;1.60;;;21.70;87.90;;;;;;5112887;28;20056;-60
2023/07/05 12:56:10;;;;;;;4.45;1.60;;;21.60;87.10;;;;;;5090874;28;20481;-62
2023/07/05 12:58:36;;;;;;;;;;;21.60;85.50;;;;;;5093011;28;20124;-67
2023/07/05 13:01:02;;;;;;;4.32;1.42;;;21.60;87.70;;;;;;5112264;28;20068;-68